Hector International Airport
KFAR : now visible

Airfield :











YOU CAN JOIN US ON...

 
LOGIN :

Register | Disclaimer

   EN    FR    IT 

 









Legend :    VFR   Marginal VFR   IFR   Intensive IFR   Very Intensive IFR
Visi :
Ceiling :
>= 8 km
>= 3000ft
5 to 8 km
1000 to 3000 ft
1500m to 5 km
500 to 1000 ft
800 to 1500m
200 to 500 ft
< 800m
< 200 ft
Symbols :   Thunderstorms  Fog  Heavy snow  Heavy precipitations  Wind > 20 kt






- Airport Elevation : 902 ft
- IATA code : FAR


KFAR - Hector International

CURRENT METAR :
  • 041453Z 20009KT 10SM CLR 28/22 A3004 RMK AO2 SLP166 T02780217 50004

EXPIRED METARs :
  • 041353Z 15006KT 10SM CLR 25/22 A3005 RMK AO2 SLP170 T02500217
  • 041253Z 16004KT 10SM CLR 23/21 A3005 RMK AO2 SLP169 T02330206

TAF KFAR
Valid from the 04 at 12:00 until the 05 at 12:00 UTC


041133Z 0412/0512 17006KT P6SM FEW250
FM050300 13006KT P6SM SCT200
FM050700 16007KT P6SM BKN180
FM051000 19005KT P6SM SCT150
KZMP FIR / North America



MET'MAP, your aeronautical weather chart ! - Copyright ORBIFLY December 2007 - Disclaimer

ORBIFLY MET'MAP TEAM :

Programming & Development : Alexandra Zaïnal
Concept & original design : Baudouin d'Aumeries
Assistance for programming : Marc-Olivier Méhu
Technical & hardware support : Manuel Goepfert

Contact : metmap@orbifly.com




SOURCES & CREDITS :

   NOAA       Earth
Advisory